»·PEaware :: CGOUP KSFO-KSEA

CGOUP :: KSFO-KSEA

FLIGHT INFORMATION

Flight Status: Arrived
Operator: Unknown
More flights by this operator :: More flights under this callsign
Pilot: Konrad W. (32064)
Aircraft: Cessna 700 Citation Longitude
(C700)
More flights by this aircraft type
Origin: KSFO San Francisco Intl
United States
Destination: KSEA Seattle-Tacoma Intl
United States
More flights between these airports :: More routes between these airports
Route: +TRUKN2 GRTFL RBL J1 BTG HAWKZ7
File this flight plan on PilotEdge
Remarks:
Altitude:
(Current/Filed)
18,000ft
Speed:
(Current/Filed)
350kts
Departed: 14-Nov-20 08:38 AM
Arrived: 14-Nov-20 10:33 AM
Distance/Time
Traveled:
589nm/1:55
Distance/Time
To Go:
Arrived

Flight Plot

Page will automatically refresh every two minutes.

Flight plan parsing failed; only flown route is shown


Map Options




Map Legend


Flown Route
Filed Route
Departure Airport
Arrival Airport
Navaid (VOR, NDB)
Fix

Horizontal Profiles

Position Reports

Time Latitude Longitude Heading Altitude Ground
Speed
14-Nov-20 08:05 37.628231 -122.380668 110 5ft 0kts
14-Nov-20 08:06 37.628231 -122.380668 110 5ft 0kts
14-Nov-20 08:07 37.628231 -122.380668 110 5ft 0kts
14-Nov-20 08:08 37.628231 -122.380668 110 5ft 0kts
14-Nov-20 08:09 37.628231 -122.380668 110 5ft 0kts
14-Nov-20 08:10 37.628231 -122.380668 110 5ft 0kts
14-Nov-20 08:11 37.628231 -122.380668 110 5ft 0kts
14-Nov-20 08:12 37.628231 -122.380668 110 5ft 0kts
14-Nov-20 08:13 37.628231 -122.380668 110 5ft 0kts
14-Nov-20 08:14 37.628231 -122.380668 110 5ft 0kts
14-Nov-20 08:14 37.628231 -122.380668 110 5ft 0kts
14-Nov-20 08:16 37.628231 -122.380668 110 5ft 0kts
14-Nov-20 08:16 37.628231 -122.380668 110 5ft 0kts
14-Nov-20 08:18 37.628231 -122.380668 110 5ft 0kts
14-Nov-20 08:18 37.628231 -122.380668 110 5ft 0kts
14-Nov-20 08:19 37.628231 -122.380668 110 5ft 0kts
14-Nov-20 08:20 37.628231 -122.380668 110 5ft 0kts
14-Nov-20 08:21 37.628231 -122.380668 110 5ft 0kts
14-Nov-20 08:22 37.628231 -122.380668 110 5ft 0kts
14-Nov-20 08:23 37.628231 -122.380668 110 5ft 0kts
14-Nov-20 08:24 37.628231 -122.380668 110 5ft 0kts
14-Nov-20 08:25 37.628231 -122.380668 110 5ft 0kts
14-Nov-20 08:26 37.628231 -122.380668 110 5ft 0kts
14-Nov-20 08:27 37.627537 -122.380128 204 6ft 10kts
14-Nov-20 08:28 37.625056 -122.380911 120 11ft 8kts
14-Nov-20 08:29 37.622903 -122.375775 116 11ft 10kts
14-Nov-20 08:30 37.619385 -122.379698 219 14ft 17kts
14-Nov-20 08:31 37.616146 -122.379967 207 8ft 11kts
14-Nov-20 08:32 37.612046 -122.382699 207 11ft 24kts
14-Nov-20 08:33 37.608921 -122.384958 189 12ft 0kts
14-Nov-20 08:34 37.608889 -122.384965 189 12ft 0kts
14-Nov-20 08:35 37.608487 -122.383931 117 15ft 0kts
14-Nov-20 08:36 37.608483 -122.383923 117 15ft 2kts
14-Nov-20 08:37 37.613142 -122.379466 28 8ft 103kts
14-Nov-20 08:38 37.659691 -122.345784 53 989ft 217kts
14-Nov-20 08:39 37.683352 -122.282165 64 2321ft 191kts
14-Nov-20 08:40 37.718260 -122.225254 25 3976ft 256kts
14-Nov-20 08:41 37.787915 -122.216776 354 5650ft 261kts
14-Nov-20 08:42 37.859387 -122.218253 355 7131ft 261kts
14-Nov-20 08:43 37.932067 -122.220235 355 8606ft 266kts
14-Nov-20 08:44 38.006165 -122.222215 354 10278ft 272kts
14-Nov-20 08:45 38.093176 -122.224426 354 12259ft 341kts
14-Nov-20 08:46 38.188047 -122.227066 353 13999ft 348kts
14-Nov-20 08:47 38.285257 -122.229673 353 15774ft 356kts
14-Nov-20 08:48 38.356709 -122.287994 275 17483ft 341kts
14-Nov-20 08:49 38.287905 -122.365544 181 18299ft 417kts
14-Nov-20 08:50 38.210118 -122.267824 90 18363ft 439kts
14-Nov-20 08:51 38.274144 -122.167215 355 18314ft 372kts
14-Nov-20 08:52 38.364624 -122.212840 338 18399ft 361kts
14-Nov-20 08:53 38.463253 -122.233873 353 18313ft 369kts
14-Nov-20 08:54 38.564994 -122.232909 352 18353ft 369kts
14-Nov-20 08:55 38.666393 -122.232521 352 18363ft 367kts
14-Nov-20 08:56 38.767940 -122.232585 352 18342ft 366kts
14-Nov-20 08:57 38.868683 -122.232780 353 18312ft 365kts
14-Nov-20 08:58 38.969164 -122.233066 353 18354ft 365kts
14-Nov-20 08:59 39.070339 -122.233411 353 18359ft 365kts
14-Nov-20 09:00 39.170963 -122.233717 353 18358ft 366kts
14-Nov-20 09:01 39.272447 -122.234002 353 18360ft 366kts
14-Nov-20 09:02 39.374131 -122.234293 353 18362ft 366kts
14-Nov-20 09:03 39.475439 -122.234575 353 18364ft 366kts
14-Nov-20 09:04 39.576454 -122.234868 352 18365ft 365kts
14-Nov-20 09:05 39.677387 -122.235150 352 18366ft 365kts
14-Nov-20 09:06 39.778540 -122.235437 352 18367ft 365kts
14-Nov-20 09:07 39.879282 -122.235725 352 18371ft 364kts
14-Nov-20 09:08 39.980337 -122.236013 352 18371ft 365kts
14-Nov-20 09:09 40.081321 -122.236767 351 18372ft 364kts
14-Nov-20 09:10 40.177743 -122.259171 341 18379ft 356kts
14-Nov-20 09:11 40.274279 -122.284893 341 18381ft 355kts
14-Nov-20 09:12 40.369979 -122.310975 341 18394ft 355kts
14-Nov-20 09:13 40.465784 -122.337379 341 18384ft 355kts
14-Nov-20 09:14 40.562129 -122.364075 341 18401ft 357kts
14-Nov-20 09:15 40.658936 -122.391024 341 18392ft 358kts
14-Nov-20 09:16 40.755947 -122.418047 341 18399ft 359kts
14-Nov-20 09:17 40.852892 -122.445210 341 18391ft 362kts
14-Nov-20 09:18 40.950765 -122.472710 341 18934ft 362kts
14-Nov-20 09:19 41.049383 -122.500487 341 20131ft 368kts
14-Nov-20 09:20 41.149915 -122.528888 340 20399ft 373kts
14-Nov-20 09:21 41.251056 -122.557515 341 20327ft 373kts
14-Nov-20 09:22 41.352462 -122.586245 341 20312ft 373kts
14-Nov-20 09:23 41.454323 -122.615291 341 20450ft 377kts
14-Nov-20 09:24 41.555552 -122.644279 341 20153ft 370kts
14-Nov-20 09:25 41.657131 -122.673456 341 20299ft 374kts
14-Nov-20 09:26 41.758026 -122.702519 340 20503ft 372kts
14-Nov-20 09:27 41.858729 -122.731519 340 21936ft 372kts
14-Nov-20 09:28 41.960337 -122.761006 339 23428ft 376kts
14-Nov-20 09:29 42.063409 -122.790997 339 24250ft 382kts
14-Nov-20 09:30 42.167295 -122.821269 339 24315ft 384kts
14-Nov-20 09:31 42.270542 -122.851471 339 24305ft 380kts
14-Nov-20 09:32 42.373396 -122.881650 339 24324ft 380kts
14-Nov-20 09:33 42.476623 -122.908889 343 24303ft 385kts
14-Nov-20 09:34 42.585356 -122.901522 354 24302ft 396kts
14-Nov-20 09:35 42.694842 -122.892027 354 24287ft 398kts
14-Nov-20 09:36 42.804575 -122.882242 355 24270ft 398kts
14-Nov-20 09:37 42.914251 -122.872184 354 24286ft 398kts
14-Nov-20 09:38 43.024696 -122.861772 354 24264ft 398kts
14-Nov-20 09:39 43.134489 -122.851382 354 24290ft 398kts
14-Nov-20 09:40 43.244526 -122.840913 354 24218ft 402kts
14-Nov-20 09:41 43.354203 -122.830485 354 24314ft 397kts
14-Nov-20 09:42 43.464192 -122.819792 354 24416ft 398kts
14-Nov-20 09:43 43.574199 -122.809187 354 23078ft 394kts
14-Nov-20 09:44 43.682296 -122.798721 355 21560ft 390kts
14-Nov-20 09:45 43.789513 -122.788360 356 20181ft 385kts
14-Nov-20 09:46 43.895905 -122.778042 356 18902ft 381kts
14-Nov-20 09:47 44.000450 -122.767846 356 18306ft 377kts
14-Nov-20 09:48 44.104829 -122.757579 356 18301ft 376kts
14-Nov-20 09:49 44.208474 -122.747362 356 18278ft 377kts
14-Nov-20 09:50 44.312669 -122.737066 356 18282ft 377kts
14-Nov-20 09:51 44.416873 -122.726752 356 18255ft 377kts
14-Nov-20 09:52 44.521318 -122.716424 356 18265ft 377kts
14-Nov-20 09:53 44.625474 -122.705979 356 18252ft 377kts
14-Nov-20 09:55 44.729767 -122.695530 356 18248ft 377kts
14-Nov-20 09:56 44.833635 -122.685085 356 18237ft 378kts
14-Nov-20 09:57 44.937972 -122.674623 356 18243ft 377kts
14-Nov-20 09:58 45.041663 -122.664085 356 18298ft 375kts
14-Nov-20 09:59 45.145796 -122.653480 356 18272ft 375kts
14-Nov-20 10:00 45.249785 -122.642857 356 18161ft 381kts
14-Nov-20 10:01 45.353582 -122.632342 356 18266ft 377kts
14-Nov-20 10:02 45.457677 -122.621685 356 18243ft 377kts
14-Nov-20 10:03 45.561852 -122.610922 356 18228ft 375kts
14-Nov-20 10:04 45.666154 -122.600013 356 18239ft 377kts
14-Nov-20 10:05 45.769881 -122.594584 347 18227ft 370kts
14-Nov-20 10:06 45.869020 -122.620969 345 18219ft 368kts
14-Nov-20 10:07 45.968721 -122.646186 344 18211ft 367kts
14-Nov-20 10:08 46.068289 -122.672010 341 18221ft 364kts
14-Nov-20 10:09 46.169064 -122.691886 343 18209ft 366kts
14-Nov-20 10:09 46.252328 -122.708223 345 18197ft 356kts
14-Nov-20 10:11 46.367370 -122.723380 354 18230ft 363kts
14-Nov-20 10:12 46.462409 -122.727467 352 17265ft 327kts
14-Nov-20 10:12 46.536349 -122.730283 351 16123ft 320kts
14-Nov-20 10:14 46.638985 -122.733786 352 14879ft 317kts
14-Nov-20 10:14 46.711230 -122.736333 352 13651ft 312kts
14-Nov-20 10:16 46.807180 -122.709274 23 12347ft 302kts
14-Nov-20 10:16 46.862034 -122.646966 33 12033ft 301kts
14-Nov-20 10:17 46.929303 -122.576127 25 11982ft 298kts
14-Nov-20 10:18 47.004511 -122.533034 8 11621ft 290kts
14-Nov-20 10:19 47.081063 -122.499071 8 10514ft 286kts
14-Nov-20 10:20 47.157629 -122.486044 5 10012ft 280kts
14-Nov-20 10:21 47.233008 -122.473974 2 9991ft 279kts
14-Nov-20 10:22 47.306702 -122.462395 1 9093ft 262kts
14-Nov-20 10:23 47.377036 -122.455024 352 7655ft 247kts
14-Nov-20 10:24 47.442481 -122.455249 355 6410ft 235kts
14-Nov-20 10:25 47.505241 -122.448080 14 5980ft 232kts
14-Nov-20 10:26 47.568456 -122.435839 0 4887ft 234kts
14-Nov-20 10:27 47.629666 -122.418927 61 3312ft 231kts
14-Nov-20 10:28 47.618975 -122.345605 146 3002ft 192kts
14-Nov-20 10:29 47.572141 -122.318322 178 2333ft 172kts
14-Nov-20 10:30 47.514984 -122.317382 180 1517ft 253kts
14-Nov-20 10:31 47.468812 -122.317869 180 563ft 135kts
14-Nov-20 10:32 47.453372 -122.317072 49 388ft 13kts
14-Nov-20 10:33 47.454420 -122.316315 43 393ft 0kts
14-Nov-20 10:34 47.453856 -122.313511 180 401ft 22kts
14-Nov-20 10:35 47.445612 -122.313583 179 379ft 27kts
14-Nov-20 10:36 47.439920 -122.313672 191 367ft 12kts
14-Nov-20 10:37 47.439347 -122.315246 174 371ft 3kts
14-Nov-20 10:38 47.439167 -122.315204 161 371ft 0kts
14-Nov-20 10:39 47.439167 -122.315204 161 371ft 0kts

Navigation Log

Ident Type
Flight plan parsing failed, navigation log unavailable